Time;durP1;ratioP1;P1;durP2;ratioP2;P2;SDS_P1;SDS_P2;PMS_P1;PMS_P2;Temp;Humidity;BMP_temperature;BMP_pressure;BME280_temperature;BME280_humidity;BME280_pressure;Samples;Min_cycle;Max_cycle;Signal;HPM_P1;HPM_P2
2023/10/25 00:00:39;;;;;;;4.03;2.83;;;;;;;;;;5049373;28;20309;-62
2023/10/25 00:03:10;;;;;;;3.50;3.30;;;;;;;;;;5049346;28;20207;-62
2023/10/25 00:05:37;;;;;;;4.33;3.00;;;;;;;;;;5049372;28;20231;-62
2023/10/25 00:08:04;;;;;;;7.93;3.00;;;;;;;;;;5049794;28;20224;-62
2023/10/25 00:10:31;;;;;;;3.03;2.63;;;;;;;;;;5048594;28;20210;-62
2023/10/25 00:13:00;;;;;;;2.83;2.63;;;;;;;;;;5048800;28;20230;-62
2023/10/25 00:15:27;;;;;;;2.90;2.20;;;;;;;;;;5049560;28;20246;-62
2023/10/25 00:17:54;;;;;;;3.13;2.47;;;;;;;;;;5049486;28;20235;-61
2023/10/25 00:20:21;;;;;;;2.40;2.30;;;;;;;;;;5048805;28;20196;-63
2023/10/25 00:22:48;;;;;;;2.70;2.50;;;;;;;;;;5048813;28;20223;-60
2023/10/25 00:25:15;;;;;;;2.13;2.03;;;;;;;;;;5049001;28;20687;-59
2023/10/25 00:27:42;;;;;;;3.07;2.90;;;;;;;;;;5048584;28;20280;-59
2023/10/25 00:30:11;;;;;;;2.87;2.67;;;;;;;;;;5048995;28;20219;-60
2023/10/25 00:32:38;;;;;;;9.60;2.97;;;;;;;;;;5048469;28;20223;-60
2023/10/25 00:35:06;;;;;;;9.30;3.10;;;;;;;;;;5048598;28;20215;-59
2023/10/25 00:37:33;;;;;;;3.93;3.30;;;;;;;;;;5048888;28;20204;-60
2023/10/25 00:40:00;;;;;;;8.37;3.87;;;;;;;;;;5048906;28;20218;-61
2023/10/25 00:42:27;;;;;;;3.83;3.20;;;;;;;;;;5048177;28;20199;-61
2023/10/25 00:44:54;;;;;;;3.97;3.07;;;;;;;;;;5047820;28;20212;-60
2023/10/25 00:47:22;;;;;;;4.03;3.57;;;;;;;;;;5048643;28;20664;-60
2023/10/25 00:49:49;;;;;;;4.13;3.83;;;;;;;;;;5048075;28;20674;-61
2023/10/25 00:52:17;;;;;;;5.57;4.00;;;;;;;;;;5048517;28;20234;-60
2023/10/25 00:54:44;;;;;;;8.67;4.53;;;;;;;;;;5048406;28;20200;-61
2023/10/25 00:57:11;;;;;;;4.20;3.90;;;;;;;;;;5048282;28;20870;-61
2023/10/25 00:59:39;;;;;;;4.83;4.13;;;;;;;;;;5048149;28;20246;-60
2023/10/25 01:02:07;;;;;;;10.27;4.23;;;;;;;;;;5048444;28;20212;-60
2023/10/25 01:04:36;;;;;;;5.97;4.37;;;;;;;;;;5047724;28;20202;-61
2023/10/25 01:07:03;;;;;;;7.80;4.20;;;;;;;;;;5045948;28;20234;-61
2023/10/25 01:09:31;;;;;;;11.03;4.23;;;;;;;;;;5048374;28;20207;-61
2023/10/25 01:11:58;;;;;;;6.30;4.77;;;;;;;;;;5047685;28;20249;-60
2023/10/25 01:14:27;;;;;;;7.83;4.40;;;;;;;;;;5047500;28;20499;-61
2023/10/25 01:16:54;;;;;;;7.17;4.10;;;;;;;;;;5048250;28;20242;-61
2023/10/25 01:19:21;;;;;;;7.47;4.70;;;;;;;;;;5047541;28;20211;-61
2023/10/25 01:21:50;;;;;;;9.37;4.53;;;;;;;;;;5046945;28;20729;-60
2023/10/25 01:24:18;;;;;;;6.90;4.70;;;;;;;;;;5047930;28;20204;-60
2023/10/25 01:26:45;;;;;;;7.93;5.57;;;;;;;;;;5048072;28;20228;-60
2023/10/25 01:29:12;;;;;;;14.23;6.10;;;;;;;;;;5047774;28;20234;-60
2023/10/25 01:31:39;;;;;;;11.67;5.20;;;;;;;;;;5047809;28;20203;-60
2023/10/25 01:34:06;;;;;;;11.50;5.47;;;;;;;;;;5047439;28;20219;-61
2023/10/25 01:36:33;;;;;;;9.87;5.37;;;;;;;;;;5047396;28;20746;-61
2023/10/25 01:39:00;;;;;;;7.67;5.40;;;;;;;;;;5047904;28;20219;-61
2023/10/25 01:41:29;;;;;;;14.47;5.70;;;;;;;;;;5047612;28;20210;-61
2023/10/25 01:43:56;;;;;;;11.97;6.23;;;;;;;;;;5047414;28;20218;-61
2023/10/25 01:46:23;;;;;;;20.03;6.60;;;;;;;;;;5047497;28;20211;-61
2023/10/25 01:48:50;;;;;;;12.13;7.07;;;;;;;;;;5047683;28;20704;-61
2023/10/25 01:51:17;;;;;;;11.87;6.10;;;;;;;;;;5046765;28;20203;-61
2023/10/25 01:53:44;;;;;;;11.53;6.57;;;;;;;;;;5047600;28;20232;-61
2023/10/25 01:56:11;;;;;;;11.27;7.17;;;;;;;;;;5046809;28;20203;-61
2023/10/25 01:58:39;;;;;;;13.80;7.03;;;;;;;;;;5047190;28;20351;-61
2023/10/25 02:01:07;;;;;;;11.27;7.30;;;;;;;;;;5047658;28;20725;-60
2023/10/25 02:03:34;;;;;;;14.77;7.97;;;;;;;;;;5047227;28;20204;-61
2023/10/25 02:06:10;;;;;;;12.73;7.80;;;;;;;;;;5045228;28;20236;-61
2023/10/25 02:08:37;;;;;;;11.63;8.37;;;;;;;;;;5046974;28;20211;-61
2023/10/25 02:11:04;;;;;;;12.23;8.53;;;;;;;;;;5046983;28;20574;-60
2023/10/25 02:13:32;;;;;;;11.90;8.40;;;;;;;;;;5047419;28;20234;-60
2023/10/25 02:16:00;;;;;;;13.70;8.50;;;;;;;;;;5046843;28;20217;-60
2023/10/25 02:18:27;;;;;;;13.70;8.93;;;;;;;;;;5046909;28;20636;-61
2023/10/25 02:20:54;;;;;;;11.20;8.47;;;;;;;;;;5047207;28;20241;-61
2023/10/25 02:23:21;;;;;;;16.57;8.53;;;;;;;;;;5047069;28;20208;-61
2023/10/25 02:25:48;;;;;;;11.43;8.33;;;;;;;;;;5047108;28;20218;-61
2023/10/25 02:28:15;;;;;;;13.30;7.60;;;;;;;;;;5047059;28;20211;-61
2023/10/25 02:30:42;;;;;;;12.23;8.40;;;;;;;;;;5046989;28;20219;-60
2023/10/25 02:33:10;;;;;;;9.33;7.57;;;;;;;;;;5049660;28;20222;-61
2023/10/25 02:35:37;;;;;;;36.97;7.93;;;;;;;;;;5051589;28;20219;-60
2023/10/25 02:38:04;;;;;;;9.07;7.60;;;;;;;;;;5050741;28;20215;-61
2023/10/25 02:40:31;;;;;;;14.47;7.10;;;;;;;;;;5051190;28;20219;-60
2023/10/25 02:42:58;;;;;;;30.40;7.13;;;;;;;;;;5051373;28;20222;-60
2023/10/25 02:45:25;;;;;;;11.43;6.43;;;;;;;;;;5050521;28;20208;-61
2023/10/25 02:47:52;;;;;;;18.30;6.53;;;;;;;;;;5050915;28;20207;-61
2023/10/25 02:50:21;;;;;;;15.67;6.40;;;;;;;;;;5051079;28;20215;-61
2023/10/25 02:52:48;;;;;;;8.93;6.43;;;;;;;;;;5050498;28;20253;-61
2023/10/25 02:55:16;;;;;;;7.13;6.43;;;;;;;;;;5050471;28;20219;-61
2023/10/25 02:57:43;;;;;;;11.37;6.23;;;;;;;;;;5051167;28;20246;-60
2023/10/25 03:00:11;;;;;;;9.90;6.73;;;;;;;;;;5050182;28;20208;-61
2023/10/25 03:02:38;;;;;;;18.33;6.47;;;;;;;;;;5050678;28;20298;-61
2023/10/25 03:05:05;;;;;;;6.57;5.90;;;;;;;;;;5050435;28;20219;-61
2023/10/25 03:07:33;;;;;;;8.03;6.13;;;;;;;;;;5050195;28;20211;-61
2023/10/25 03:10:00;;;;;;;16.20;6.97;;;;;;;;;;5050109;28;20699;-61
2023/10/25 03:12:27;;;;;;;17.77;6.97;;;;;;;;;;5050624;28;20215;-61
2023/10/25 03:14:54;;;;;;;8.93;6.77;;;;;;;;;;5050071;28;20254;-60
2023/10/25 03:17:21;;;;;;;7.63;6.83;;;;;;;;;;5050635;28;20207;-61
2023/10/25 03:19:48;;;;;;;15.93;7.10;;;;;;;;;;5050502;28;20241;-60
2023/10/25 03:22:15;;;;;;;7.83;6.63;;;;;;;;;;5049700;28;20200;-60
2023/10/25 03:24:44;;;;;;;7.53;6.73;;;;;;;;;;5050389;28;20219;-61
2023/10/25 03:27:11;;;;;;;10.47;7.33;;;;;;;;;;5050114;28;20207;-60
2023/10/25 03:29:38;;;;;;;33.37;7.50;;;;;;;;;;5049881;28;20231;-60
2023/10/25 03:32:05;;;;;;;33.27;7.23;;;;;;;;;;5050214;28;20679;-60
2023/10/25 03:34:32;;;;;;;15.10;7.37;;;;;;;;;;5049984;28;20231;-60
2023/10/25 03:36:59;;;;;;;7.83;6.73;;;;;;;;;;5049765;28;20215;-60
2023/10/25 03:39:26;;;;;;;12.80;6.73;;;;;;;;;;5050097;28;20211;-60
2023/10/25 03:41:54;;;;;;;11.10;7.40;;;;;;;;;;5049862;28;20691;-61
2023/10/25 03:44:21;;;;;;;9.40;7.37;;;;;;;;;;5048723;28;20196;-61
2023/10/25 03:46:48;;;;;;;10.83;7.80;;;;;;;;;;5050094;28;20592;-61
2023/10/25 03:49:15;;;;;;;14.50;7.50;;;;;;;;;;5050058;28;20215;-60
2023/10/25 03:51:42;;;;;;;9.97;7.20;;;;;;;;;;5049650;28;20203;-61
2023/10/25 03:54:09;;;;;;;29.30;6.93;;;;;;;;;;5050021;28;20243;-60
2023/10/25 03:56:36;;;;;;;10.87;7.40;;;;;;;;;;5048433;28;20212;-61
2023/10/25 03:59:05;;;;;;;22.80;7.17;;;;;;;;;;5048899;28;20731;-61
2023/10/25 04:01:32;;;;;;;20.40;7.70;;;;;;;;;;5048962;28;20316;-61
2023/10/25 04:03:59;;;;;;;11.47;7.47;;;;;;;;;;5049355;28;20210;-61
2023/10/25 04:06:26;;;;;;;30.27;7.87;;;;;;;;;;5048889;28;20304;-60
2023/10/25 04:08:53;;;;;;;15.10;8.00;;;;;;;;;;5049333;28;20212;-60
2023/10/25 04:11:20;;;;;;;14.50;8.03;;;;;;;;;;5049323;28;20667;-60
2023/10/25 04:13:47;;;;;;;10.63;7.23;;;;;;;;;;5049151;28;20251;-61
2023/10/25 04:16:15;;;;;;;19.87;7.57;;;;;;;;;;5049774;28;20204;-61
2023/10/25 04:18:42;;;;;;;10.17;7.77;;;;;;;;;;5049050;28;20211;-60
2023/10/25 04:21:10;;;;;;;12.63;8.23;;;;;;;;;;5048816;28;20208;-60
2023/10/25 04:23:38;;;;;;;11.07;7.43;;;;;;;;;;5049519;28;20241;-61
2023/10/25 04:26:05;;;;;;;16.40;7.90;;;;;;;;;;5049090;28;20771;-61
2023/10/25 04:28:32;;;;;;;25.73;7.60;;;;;;;;;;5048429;28;20306;-60
2023/10/25 04:30:59;;;;;;;11.97;8.03;;;;;;;;;;5049043;28;20203;-61
2023/10/25 04:33:28;;;;;;;12.97;7.90;;;;;;;;;;5048842;28;20224;-61
2023/10/25 04:35:55;;;;;;;13.83;7.67;;;;;;;;;;5048713;28;20214;-61
2023/10/25 04:38:24;;;;;;;13.27;8.63;;;;;;;;;;5048936;28;20683;-60
2023/10/25 04:40:51;;;;;;;14.87;9.30;;;;;;;;;;5048894;28;20228;-60
2023/10/25 04:43:18;;;;;;;34.03;10.00;;;;;;;;;;5048616;28;20207;-60
2023/10/25 04:45:45;;;;;;;15.33;9.80;;;;;;;;;;5048806;28;20235;-61
2023/10/25 04:48:13;;;;;;;17.37;10.23;;;;;;;;;;5049045;28;20306;-60
2023/10/25 04:50:41;;;;;;;22.63;12.50;;;;;;;;;;5048289;28;20286;-61
2023/10/25 04:53:08;;;;;;;20.83;11.80;;;;;;;;;;5048251;28;20556;-61
2023/10/25 04:55:36;;;;;;;18.07;8.87;;;;;;;;;;5047790;28;20215;-60
2023/10/25 04:58:03;;;;;;;33.10;9.20;;;;;;;;;;5033335;28;20213;-61
2023/10/25 05:00:31;;;;;;;18.77;9.67;;;;;;;;;;5028361;28;20262;-61
2023/10/25 05:02:58;;;;;;;16.50;10.47;;;;;;;;;;5026859;28;20258;-61
2023/10/25 05:05:25;;;;;;;13.93;9.30;;;;;;;;;;5034181;28;20297;-61
2023/10/25 05:07:54;;;;;;;17.83;10.33;;;;;;;;;;5048095;28;20291;-61
2023/10/25 05:10:21;;;;;;;16.67;9.90;;;;;;;;;;5048165;28;20230;-60
2023/10/25 05:12:49;;;;;;;21.20;9.60;;;;;;;;;;5047425;28;20309;-60
2023/10/25 05:15:16;;;;;;;19.87;9.80;;;;;;;;;;5047551;28;20790;-60
2023/10/25 05:17:44;;;;;;;27.53;9.53;;;;;;;;;;5047767;28;20203;-61
2023/10/25 05:20:12;;;;;;;15.40;9.80;;;;;;;;;;5046516;28;20212;-61
2023/10/25 05:22:40;;;;;;;16.87;10.57;;;;;;;;;;5045612;28;20204;-61
2023/10/25 05:25:10;;;;;;;20.00;11.03;;;;;;;;;;5048194;28;20405;-61
2023/10/25 05:27:37;;;;;;;17.57;9.93;;;;;;;;;;5045434;28;20210;-60
2023/10/25 05:30:07;;;;;;;17.20;10.90;;;;;;;;;;5047338;28;20207;-61
2023/10/25 05:32:35;;;;;;;29.40;11.73;;;;;;;;;;5047607;28;20288;-61
2023/10/25 05:35:03;;;;;;;16.40;10.20;;;;;;;;;;5047911;28;20239;-61
2023/10/25 05:37:31;;;;;;;18.13;11.17;;;;;;;;;;5047537;28;20196;-60
2023/10/25 05:39:58;;;;;;;17.33;10.20;;;;;;;;;;5047278;28;20208;-61
2023/10/25 05:42:27;;;;;;;19.03;11.60;;;;;;;;;;5046939;28;20208;-61
2023/10/25 05:44:55;;;;;;;17.50;10.87;;;;;;;;;;5045997;28;20203;-59
2023/10/25 05:47:22;;;;;;;19.47;10.80;;;;;;;;;;5047082;28;20269;-60
2023/10/25 05:49:50;;;;;;;18.13;10.93;;;;;;;;;;5047139;28;20294;-61
2023/10/25 05:52:17;;;;;;;18.83;10.00;;;;;;;;;;5047574;28;20214;-61
2023/10/25 05:54:44;;;;;;;31.70;10.83;;;;;;;;;;5046640;28;20678;-61
2023/10/25 05:57:12;;;;;;;19.40;10.20;;;;;;;;;;5047042;28;20242;-61
2023/10/25 05:59:41;;;;;;;17.27;9.60;;;;;;;;;;5047012;28;20199;-61
2023/10/25 06:02:10;;;;;;;15.33;9.63;;;;;;;;;;5047271;28;20222;-61
2023/10/25 06:04:38;;;;;;;24.80;10.13;;;;;;;;;;5046911;28;20777;-61
2023/10/25 06:07:05;;;;;;;42.90;10.60;;;;;;;;;;5046861;28;20224;-60
2023/10/25 06:09:32;;;;;;;19.60;10.27;;;;;;;;;;5047236;28;20216;-61
2023/10/25 06:12:00;;;;;;;26.70;10.03;;;;;;;;;;5045920;28;20207;-60
2023/10/25 06:14:29;;;;;;;32.27;9.90;;;;;;;;;;5030507;28;20240;-60
2023/10/25 06:16:58;;;;;;;35.13;10.30;;;;;;;;;;5030454;28;20238;-60
2023/10/25 06:19:25;;;;;;;34.50;10.50;;;;;;;;;;5047137;28;20223;-60
2023/10/25 06:21:52;;;;;;;24.30;10.47;;;;;;;;;;5046586;28;20210;-60
2023/10/25 06:24:19;;;;;;;27.87;10.70;;;;;;;;;;5026115;28;20209;-61
2023/10/25 06:26:46;;;;;;;32.37;9.27;;;;;;;;;;5025248;28;20208;-61
2023/10/25 06:29:13;;;;;;;17.60;9.83;;;;;;;;;;5028999;28;20199;-61
2023/10/25 06:31:41;;;;;;;27.17;10.87;;;;;;;;;;5047147;28;20222;-61
2023/10/25 06:34:09;;;;;;;21.13;9.67;;;;;;;;;;5047046;28;20230;-61
2023/10/25 06:36:37;;;;;;;21.00;10.27;;;;;;;;;;5046462;28;20218;-61
2023/10/25 06:39:07;;;;;;;16.63;9.53;;;;;;;;;;5046811;28;20297;-61
2023/10/25 06:41:35;;;;;;;17.93;9.43;;;;;;;;;;5046963;28;20214;-61
2023/10/25 06:44:03;;;;;;;31.17;10.20;;;;;;;;;;5046405;28;20199;-61
2023/10/25 06:46:30;;;;;;;20.77;9.90;;;;;;;;;;5046372;28;20630;-61
2023/10/25 06:48:58;;;;;;;23.73;10.00;;;;;;;;;;5046781;28;20203;-61
2023/10/25 06:51:27;;;;;;;17.40;9.10;;;;;;;;;;5046443;28;20239;-61
2023/10/25 06:53:54;;;;;;;23.17;11.23;;;;;;;;;;5046275;28;20741;-61
2023/10/25 06:56:22;;;;;;;23.20;10.30;;;;;;;;;;5046784;28;20579;-61
2023/10/25 06:58:50;;;;;;;29.23;12.70;;;;;;;;;;5046601;28;20584;-61
2023/10/25 07:01:18;;;;;;;25.53;10.73;;;;;;;;;;5046036;28;20207;-61
2023/10/25 07:03:46;;;;;;;21.87;10.20;;;;;;;;;;5046410;28;20247;-61
2023/10/25 07:06:15;;;;;;;19.13;10.30;;;;;;;;;;5046626;28;20224;-61
2023/10/25 07:08:44;;;;;;;16.67;10.03;;;;;;;;;;5046217;28;20265;-61
2023/10/25 07:11:11;;;;;;;18.77;10.73;;;;;;;;;;5046219;28;20203;-61
2023/10/25 07:13:38;;;;;;;18.27;9.80;;;;;;;;;;5046336;28;20208;-61
2023/10/25 07:16:06;;;;;;;14.47;9.10;;;;;;;;;;5046697;28;20314;-61
2023/10/25 07:18:33;;;;;;;16.47;9.83;;;;;;;;;;5046031;28;20215;-61
2023/10/25 07:21:00;;;;;;;15.53;9.03;;;;;;;;;;5050002;28;20216;-62
2023/10/25 07:23:27;;;;;;;12.03;8.13;;;;;;;;;;5050440;28;20204;-61
2023/10/25 07:25:56;;;;;;;11.37;8.23;;;;;;;;;;5049758;28;20254;-62
2023/10/25 07:28:23;;;;;;;17.23;9.10;;;;;;;;;;5049912;28;20212;-62
2023/10/25 07:30:50;;;;;;;14.43;8.97;;;;;;;;;;5050170;28;20215;-62
2023/10/25 07:33:18;;;;;;;12.13;8.47;;;;;;;;;;5049550;28;20596;-62
2023/10/25 07:35:46;;;;;;;11.43;8.23;;;;;;;;;;5049907;28;20713;-61
2023/10/25 07:38:12;;;;;;;14.20;7.70;;;;;;;;;;5049865;28;20257;-61
2023/10/25 07:40:40;;;;;;;10.07;7.70;;;;;;;;;;5049641;28;20687;-61
2023/10/25 07:43:09;;;;;;;10.27;7.47;;;;;;;;;;5049815;28;20215;-62
2023/10/25 07:45:36;;;;;;;13.67;7.47;;;;;;;;;;5049425;28;20218;-60
2023/10/25 07:48:03;;;;;;;9.07;7.13;;;;;;;;;;5035002;28;20200;-62
2023/10/25 07:50:30;;;;;;;9.47;7.03;;;;;;;;;;5049358;28;20578;-64
2023/10/25 07:52:57;;;;;;;10.93;6.97;;;;;;;;;;5049642;28;20215;-64
2023/10/25 07:55:24;;;;;;;10.93;7.77;;;;;;;;;;5048871;28;20231;-61
2023/10/25 07:57:51;;;;;;;12.37;7.20;;;;;;;;;;5049145;28;20679;-62
2023/10/25 08:00:20;;;;;;;9.57;6.47;;;;;;;;;;5049567;28;20218;-61
2023/10/25 08:02:47;;;;;;;9.90;6.70;;;;;;;;;;5048745;28;20583;-61
2023/10/25 08:05:14;;;;;;;8.00;6.70;;;;;;;;;;5049176;28;20206;-62
2023/10/25 08:07:42;;;;;;;5.90;5.30;;;;;;;;;;5046326;28;20213;-61
2023/10/25 08:10:10;;;;;;;6.33;5.50;;;;;;;;;;5033007;28;20216;-61
2023/10/25 08:12:37;;;;;;;7.50;5.03;;;;;;;;;;5029076;28;20236;-61
2023/10/25 08:15:05;;;;;;;5.50;5.00;;;;;;;;;;5029231;28;20270;-61
2023/10/25 08:17:34;;;;;;;6.37;5.13;;;;;;;;;;5044864;28;20291;-61
2023/10/25 08:20:01;;;;;;;6.20;4.67;;;;;;;;;;5048759;28;20735;-61
2023/10/25 08:22:28;;;;;;;6.63;4.83;;;;;;;;;;5049001;28;20207;-61
2023/10/25 08:24:55;;;;;;;4.83;4.00;;;;;;;;;;5048886;28;20200;-62
2023/10/25 08:27:22;;;;;;;5.20;4.67;;;;;;;;;;5048360;28;20302;-61
2023/10/25 08:29:49;;;;;;;4.13;3.80;;;;;;;;;;5048953;28;20207;-62
2023/10/25 08:32:16;;;;;;;8.10;4.97;;;;;;;;;;5048420;28;20596;-62
2023/10/25 08:34:48;;;;;;;5.53;4.33;;;;;;;;;;5048260;28;20227;-62
2023/10/25 08:37:15;;;;;;;4.50;4.10;;;;;;;;;;5048198;28;20687;-62
2023/10/25 08:39:42;;;;;;;4.67;3.47;;;;;;;;;;5048864;28;20676;-59
2023/10/25 08:42:11;;;;;;;4.93;4.13;;;;;;;;;;5048124;28;20204;-59
2023/10/25 08:44:40;;;;;;;4.57;4.17;;;;;;;;;;5048056;28;20241;-59
2023/10/25 08:47:08;;;;;;;3.70;3.50;;;;;;;;;;5048571;28;20241;-59
2023/10/25 08:49:35;;;;;;;4.70;4.03;;;;;;;;;;5040792;28;20274;-62
2023/10/25 08:52:04;;;;;;;6.77;3.80;;;;;;;;;;5037247;28;20204;-62
2023/10/25 08:54:31;;;;;;;5.67;3.93;;;;;;;;;;5047965;28;20698;-62
2023/10/25 08:56:59;;;;;;;4.30;3.80;;;;;;;;;;5048509;28;20565;-61
2023/10/25 08:59:26;;;;;;;4.47;4.07;;;;;;;;;;5048102;28;20706;-61
2023/10/25 09:01:53;;;;;;;4.70;4.30;;;;;;;;;;5046761;28;20672;-61
2023/10/25 09:04:20;;;;;;;4.40;4.00;;;;;;;;;;5048347;28;20305;-61
2023/10/25 09:06:47;;;;;;;4.00;3.70;;;;;;;;;;5047706;28;20220;-61
2023/10/25 09:09:15;;;;;;;6.30;4.53;;;;;;;;;;5043503;28;20215;-61
2023/10/25 09:11:43;;;;;;;5.10;4.60;;;;;;;;;;5047913;28;20606;-61
2023/10/25 09:14:13;;;;;;;4.03;3.63;;;;;;;;;;5046043;28;20610;-61
2023/10/25 09:16:42;;;;;;;4.70;4.33;;;;;;;;;;5034160;28;20216;-69
2023/10/25 09:19:09;;;;;;;4.60;4.30;;;;;;;;;;5047240;28;20234;-62
2023/10/25 09:21:36;;;;;;;7.00;4.70;;;;;;;;;;5047444;28;20258;-61
2023/10/25 09:24:07;;;;;;;5.43;4.77;;;;;;;;;;5045454;28;20675;-58
2023/10/25 09:26:36;;;;;;;7.33;4.80;;;;;;;;;;5046560;28;20200;-61
2023/10/25 09:29:04;;;;;;;5.77;4.53;;;;;;;;;;5047071;28;20254;-61
2023/10/25 09:31:31;;;;;;;4.97;4.47;;;;;;;;;;5027970;28;20212;-61
2023/10/25 09:33:59;;;;;;;4.87;4.47;;;;;;;;;;5026991;28;20306;-61
2023/10/25 09:36:27;;;;;;;4.70;4.23;;;;;;;;;;5027496;28;20232;-62
2023/10/25 09:38:54;;;;;;;8.90;4.10;;;;;;;;;;5039672;28;20219;-61
2023/10/25 09:41:21;;;;;;;4.90;4.50;;;;;;;;;;5046660;28;20204;-61
2023/10/25 09:43:51;;;;;;;4.33;3.93;;;;;;;;;;5046850;28;20298;-62
2023/10/25 09:46:18;;;;;;;4.67;4.27;;;;;;;;;;5047766;28;20214;-61
2023/10/25 09:48:55;;;;;;;7.53;5.00;;;;;;;;;;5046459;28;20200;-61
2023/10/25 09:51:25;;;;;;;5.30;4.07;;;;;;;;;;5045577;28;20654;-61
2023/10/25 09:53:57;;;;;;;5.20;4.70;;;;;;;;;;5046460;28;20729;-62
2023/10/25 09:56:25;;;;;;;4.60;4.20;;;;;;;;;;5046365;28;20546;-61
2023/10/25 09:58:53;;;;;;;8.27;4.13;;;;;;;;;;5046538;28;20921;-62
2023/10/25 10:01:20;;;;;;;5.57;4.27;;;;;;;;;;5046254;28;20211;-62
2023/10/25 10:03:51;;;;;;;6.17;4.30;;;;;;;;;;5046909;28;20450;-62
2023/10/25 10:06:24;;;;;;;4.60;4.20;;;;;;;;;;5045679;28;20216;-62
2023/10/25 10:08:54;;;;;;;4.07;3.77;;;;;;;;;;5046396;28;20604;-62
2023/10/25 10:11:25;;;;;;;4.90;3.83;;;;;;;;;;5046586;28;20432;-62
2023/10/25 10:14:07;;;;;;;4.10;3.80;;;;;;;;;;5044884;28;20782;-63
2023/10/25 10:16:35;;;;;;;4.90;4.43;;;;;;;;;;5046997;28;20638;-63
2023/10/25 10:19:02;;;;;;;5.63;4.20;;;;;;;;;;5046433;28;20208;-62
2023/10/25 10:21:29;;;;;;;5.00;4.20;;;;;;;;;;5046434;28;20219;-62
2023/10/25 10:23:56;;;;;;;5.97;3.97;;;;;;;;;;5046789;28;20257;-61
2023/10/25 10:26:41;;;;;;;4.27;3.97;;;;;;;;;;5046262;28;20588;-61
2023/10/25 10:29:34;;;;;;;7.43;4.23;;;;;;;;;;5046680;28;20211;-62
2023/10/25 10:32:04;;;;;;;5.00;4.00;;;;;;;;;;5033595;28;20220;-62
2023/10/25 10:34:37;;;;;;;4.27;3.93;;;;;;;;;;5039597;28;20690;-63
2023/10/25 10:37:08;;;;;;;6.10;3.90;;;;;;;;;;5046763;28;20238;-62
2023/10/25 10:39:35;;;;;;;4.67;3.97;;;;;;;;;;5046427;28;20273;-62
2023/10/25 10:42:02;;;;;;;4.07;3.77;;;;;;;;;;5045432;28;20227;-62
2023/10/25 10:44:29;;;;;;;6.53;5.50;;;;;;;;;;5041706;28;20358;-63
2023/10/25 10:46:59;;;;;;;13.00;6.33;;;;;;;;;;5046389;28;20207;-62
2023/10/25 10:49:30;;;;;;;21.27;6.00;;;;;;;;;;5046159;28;20208;-62
2023/10/25 10:51:58;;;;;;;6.77;4.60;;;;;;;;;;5045675;28;20668;-63
2023/10/25 10:54:25;;;;;;;5.40;4.13;;;;;;;;;;5047050;28;20294;-61
2023/10/25 10:56:52;;;;;;;4.73;3.90;;;;;;;;;;5050218;28;20247;-62
2023/10/25 10:59:20;;;;;;;4.07;3.77;;;;;;;;;;5050034;28;20557;-61
2023/10/25 11:01:47;;;;;;;4.60;4.20;;;;;;;;;;5049492;28;20267;-62
2023/10/25 11:04:14;;;;;;;4.40;3.70;;;;;;;;;;5050383;28;20230;-60
2023/10/25 11:06:42;;;;;;;5.87;4.17;;;;;;;;;;5049405;28;20228;-61
2023/10/25 11:09:09;;;;;;;4.40;3.63;;;;;;;;;;5049758;28;20224;-63
2023/10/25 11:11:36;;;;;;;4.67;4.27;;;;;;;;;;5049719;28;20644;-61
2023/10/25 11:14:03;;;;;;;5.37;4.70;;;;;;;;;;5049490;28;20301;-61
2023/10/25 11:16:31;;;;;;;5.17;4.33;;;;;;;;;;5049618;28;20332;-61
2023/10/25 11:19:07;;;;;;;4.60;3.90;;;;;;;;;;5041761;28;20211;-61
2023/10/25 11:21:34;;;;;;;4.57;4.27;;;;;;;;;;5044263;28;20210;-61
2023/10/25 11:24:06;;;;;;;41.83;20.30;;;;;;;;;;5049151;28;20200;-62
2023/10/25 11:26:37;;;;;;;5.17;4.57;;;;;;;;;;5049493;28;20196;-61
2023/10/25 11:29:05;;;;;;;4.60;4.13;;;;;;;;;;5049263;28;20236;-62
2023/10/25 11:31:33;;;;;;;5.23;3.90;;;;;;;;;;5044098;28;20200;-62
2023/10/25 11:34:01;;;;;;;3.90;3.60;;;;;;;;;;5048936;28;20200;-62
2023/10/25 11:36:29;;;;;;;6.73;4.13;;;;;;;;;;5037178;28;20292;-62
2023/10/25 11:39:05;;;;;;;4.07;3.67;;;;;;;;;;5041454;28;20215;-62
2023/10/25 11:41:33;;;;;;;3.87;3.57;;;;;;;;;;5028635;28;20235;-62
2023/10/25 11:44:00;;;;;;;2.93;2.83;;;;;;;;;;5029094;28;20207;-62
2023/10/25 11:46:29;;;;;;;3.20;3.00;;;;;;;;;;5033598;28;20694;-61
2023/10/25 11:48:59;;;;;;;2.80;2.60;;;;;;;;;;5047478;28;20309;-62
2023/10/25 11:51:26;;;;;;;2.97;2.53;;;;;;;;;;5048636;28;20213;-62
2023/10/25 11:53:53;;;;;;;2.10;2.00;;;;;;;;;;5048799;28;20208;-62
2023/10/25 11:56:24;;;;;;;2.20;1.97;;;;;;;;;;5049187;28;20239;-62
2023/10/25 11:58:51;;;;;;;2.10;2.00;;;;;;;;;;5046072;28;20192;-62
2023/10/25 12:01:18;;;;;;;4.63;1.60;;;;;;;;;;5028380;28;20342;-62
2023/10/25 12:03:45;;;;;;;2.47;2.13;;;;;;;;;;5033236;28;20204;-62
2023/10/25 12:06:12;;;;;;;2.80;2.70;;;;;;;;;;5035512;28;20228;-62
2023/10/25 12:08:40;;;;;;;1.53;1.47;;;;;;;;;;5045568;28;20215;-63
2023/10/25 12:11:10;;;;;;;12.10;7.57;;;;;;;;;;5039116;28;20627;-62
2023/10/25 12:13:38;;;;;;;1.70;1.47;;;;;;;;;;5048820;28;20294;-61
2023/10/25 12:16:06;;;;;;;1.63;1.53;;;;;;;;;;5048567;28;20613;-62
2023/10/25 12:18:35;;;;;;;1.80;1.60;;;;;;;;;;5048073;28;20502;-63
2023/10/25 12:21:02;;;;;;;1.80;1.70;;;;;;;;;;5047944;28;20208;-63
2023/10/25 12:23:29;;;;;;;1.80;1.70;;;;;;;;;;5028340;28;20212;-62
2023/10/25 12:25:57;;;;;;;1.83;1.40;;;;;;;;;;5028216;28;20258;-59
2023/10/25 12:28:24;;;;;;;1.97;1.87;;;;;;;;;;5033733;28;20195;-61
2023/10/25 12:30:52;;;;;;;1.73;1.63;;;;;;;;;;5047545;28;20218;-60
2023/10/25 12:33:19;;;;;;;2.93;1.77;;;;;;;;;;5046965;28;20207;-60
2023/10/25 12:35:46;;;;;;;1.87;1.77;;;;;;;;;;5034956;28;20203;-60
2023/10/25 12:38:13;;;;;;;1.50;1.40;;;;;;;;;;5048159;28;20211;-61
2023/10/25 12:40:40;;;;;;;1.60;1.50;;;;;;;;;;5047472;28;20445;-59
2023/10/25 12:43:07;;;;;;;1.70;1.60;;;;;;;;;;5048098;28;20204;-60
2023/10/25 12:45:34;;;;;;;1.50;1.50;;;;;;;;;;5047622;28;20442;-62
2023/10/25 12:48:03;;;;;;;1.43;1.43;;;;;;;;;;5047172;28;20211;-62
2023/10/25 12:50:30;;;;;;;1.50;1.40;;;;;;;;;;5047864;28;20302;-62
2023/10/25 12:52:57;;;;;;;1.47;1.47;;;;;;;;;;5047269;28;20204;-59
2023/10/25 12:55:24;;;;;;;1.60;1.50;;;;;;;;;;5047659;28;20436;-63
2023/10/25 12:57:52;;;;;;;4.97;2.00;;;;;;;;;;5047709;28;20265;-59
2023/10/25 13:00:19;;;;;;;8.80;5.63;;;;;;;;;;5047374;28;20290;-61
2023/10/25 13:02:46;;;;;;;2.30;2.03;;;;;;;;;;5043397;28;20208;-62
2023/10/25 13:05:14;;;;;;;1.73;1.70;;;;;;;;;;5047338;28;20672;-62
2023/10/25 13:07:43;;;;;;;1.70;1.60;;;;;;;;;;5044916;28;20226;-60
2023/10/25 13:10:10;;;;;;;3.10;1.53;;;;;;;;;;5046853;28;20203;-62
2023/10/25 13:12:37;;;;;;;5.70;1.60;;;;;;;;;;5039221;28;20219;-62
2023/10/25 13:15:05;;;;;;;1.63;1.53;;;;;;;;;;5041943;28;20660;-62
2023/10/25 13:17:32;;;;;;;1.77;1.67;;;;;;;;;;5039691;28;20232;-62
2023/10/25 13:20:02;;;;;;;1.67;1.57;;;;;;;;;;5032722;28;20196;-62
2023/10/25 13:22:30;;;;;;;1.73;1.63;;;;;;;;;;5042249;28;20207;-62
2023/10/25 13:24:59;;;;;;;2.33;1.37;;;;;;;;;;5039794;28;20199;-62
2023/10/25 13:27:26;;;;;;;1.30;1.30;;;;;;;;;;5041813;28;20211;-62
2023/10/25 13:29:55;;;;;;;1.33;1.23;;;;;;;;;;5047039;28;20203;-60
2023/10/25 13:32:25;;;;;;;1.30;1.30;;;;;;;;;;5042224;28;20254;-60
2023/10/25 13:34:52;;;;;;;1.90;1.80;;;;;;;;;;5026972;28;20254;-61
2023/10/25 13:37:19;;;;;;;2.70;1.87;;;;;;;;;;5043726;28;20257;-60
2023/10/25 13:39:47;;;;;;;1.67;1.57;;;;;;;;;;5046997;28;20215;-61
2023/10/25 13:42:14;;;;;;;2.60;2.50;;;;;;;;;;5046354;28;20691;-61
2023/10/25 13:44:42;;;;;;;2.93;2.73;;;;;;;;;;5042794;28;20192;-63
2023/10/25 13:47:09;;;;;;;2.23;2.13;;;;;;;;;;5039809;28;20203;-61
2023/10/25 13:49:36;;;;;;;1.50;1.50;;;;;;;;;;5027100;28;20285;-61
2023/10/25 13:52:03;;;;;;;1.77;1.77;;;;;;;;;;5040985;28;20215;-60
2023/10/25 13:54:30;;;;;;;2.20;1.80;;;;;;;;;;5047129;28;20630;-60
2023/10/25 13:56:58;;;;;;;1.90;1.90;;;;;;;;;;5046425;28;20222;-60
2023/10/25 13:59:26;;;;;;;1.93;1.77;;;;;;;;;;5046093;28;20501;-61
2023/10/25 14:01:53;;;;;;;2.10;1.77;;;;;;;;;;5046486;28;20664;-60
2023/10/25 14:04:20;;;;;;;1.80;1.70;;;;;;;;;;5042222;28;20203;-60
2023/10/25 14:06:47;;;;;;;1.77;1.67;;;;;;;;;;5046309;28;20545;-60
2023/10/25 14:09:14;;;;;;;1.87;1.70;;;;;;;;;;5044058;28;20282;-60
2023/10/25 14:11:46;;;;;;;1.63;1.52;;;;;;;;;;5045447;28;20195;-61
2023/10/25 14:14:14;;;;;;;2.00;1.90;;;;;;;;;;5045665;28;20727;-60
2023/10/25 14:16:43;;;;;;;1.50;1.50;;;;;;;;;;5044342;28;20232;-60
2023/10/25 14:19:10;;;;;;;1.40;1.40;;;;;;;;;;5026603;28;20227;-60
2023/10/25 14:21:37;;;;;;;4.53;1.73;;;;;;;;;;5038302;28;20208;-60
2023/10/25 14:24:05;;;;;;;1.57;1.50;;;;;;;;;;5045916;28;20211;-60
2023/10/25 14:26:32;;;;;;;1.77;1.77;;;;;;;;;;5046453;28;20210;-60
2023/10/25 14:28:59;;;;;;;1.90;1.80;;;;;;;;;;5048276;28;20211;-60
2023/10/25 14:31:27;;;;;;;1.42;1.42;;;;;;;;;;5049465;28;20423;-60
2023/10/25 14:33:54;;;;;;;1.80;1.70;;;;;;;;;;5050629;28;20235;-61
2023/10/25 14:36:21;;;;;;;1.90;1.90;;;;;;;;;;5050388;28;20227;-59
2023/10/25 14:38:49;;;;;;;1.63;1.63;;;;;;;;;;5049527;28;20446;-58